Time;durP1;ratioP1;P1;durP2;ratioP2;P2;SDS_P1;SDS_P2;PMS_P1;PMS_P2;Temp;Humidity;BMP_temperature;BMP_pressure;BME280_temperature;BME280_humidity;BME280_pressure;Samples;Min_cycle;Max_cycle;Signal;HPM_P1;HPM_P2
2024/02/19 00:00:36;;;;;;;;;9.00;9.00;;;;;-144.24;100.00;71792.72;5017291;28;63372;-72
2024/02/19 00:03:02;;;;;;;;;7.33;6.00;;;;;-144.24;100.00;71540.72;5017362;28;60302;-72
2024/02/19 00:05:30;;;;;;;;;7.67;6.67;;;;;-144.24;100.00;71318.97;5017455;28;45435;-72
2024/02/19 00:07:55;;;;;;;;;6.33;6.00;;;;;-144.24;100.00;71149.66;5015187;28;46609;-73
2024/02/19 00:10:20;;;;;;;;;8.00;6.00;;;;;-144.24;100.00;70944.06;5017767;28;45393;-73
2024/02/19 00:12:48;;;;;;;;;6.33;4.00;;;;;-144.24;100.00;70944.06;5014111;28;49399;-72
2024/02/19 00:15:13;;;;;;;;;6.67;6.00;;;;;-144.24;100.00;70811.03;5017675;28;45308;-72
2024/02/19 00:17:38;;;;;;;;;7.00;5.67;;;;;-144.24;100.00;70780.81;5017039;28;45406;-72
2024/02/19 00:20:05;;;;;;;;;14.00;8.33;;;;;-144.24;100.00;70559.13;5015932;28;45443;-72
2024/02/19 00:22:30;;;;;;;;;11.00;6.67;;;;;-144.24;100.00;70430.13;5017814;28;45439;-71
2024/02/19 00:24:56;;;;;;;;;12.33;9.00;;;;;-144.24;100.00;70494.63;5016296;28;55603;-72
2024/02/19 00:27:21;;;;;;;;;10.33;6.67;;;;;-144.24;100.00;70498.66;5016236;28;74534;-72
2024/02/19 00:29:46;;;;;;;;;8.33;7.00;;;;;-144.24;100.00;70414.00;5016324;28;69642;-72
2024/02/19 00:32:12;;;;;;;;;9.33;8.00;;;;;-144.24;100.00;70373.72;5016533;28;64519;-72
2024/02/19 00:34:41;;;;;;;;;13.67;7.67;;;;;-144.24;100.00;70363.63;5015245;28;66620;-74
2024/02/19 00:37:07;;;;;;;;;5.00;5.00;;;;;-144.24;100.00;70258.84;5017027;28;46569;-71
2024/02/19 00:39:32;;;;;;;;;7.00;6.67;;;;;-144.24;100.00;70422.06;5017208;28;46603;-72
2024/02/19 00:41:57;;;;;;;;;6.00;6.00;;;;;-144.24;100.00;70397.88;5016994;28;68360;-72
2024/02/19 00:44:23;;;;;;;;;14.33;9.00;;;;;-144.24;100.00;70184.28;5016983;28;45431;-72
2024/02/19 00:46:48;;;;;;;;;10.67;5.00;;;;;-144.24;100.00;70152.03;5016987;28;46356;-72
2024/02/19 00:49:13;;;;;;;;;10.00;7.00;;;;;-144.24;100.00;69946.50;5015253;28;62251;-72
2024/02/19 00:51:39;;;;;;;;;13.33;7.67;;;;;-144.24;100.00;69865.91;5014501;28;65925;-71
2024/02/19 00:54:04;;;;;;;;;5.00;5.00;;;;;-144.24;100.00;69724.84;5016892;28;45352;-73
2024/02/19 00:56:29;;;;;;;;;6.00;6.00;;;;;-144.24;100.00;69577.75;5017126;28;47302;-71
2024/02/19 00:58:55;;;;;;;;;11.33;9.67;;;;;-144.24;100.00;69499.19;5016400;28;69395;-72
2024/02/19 01:01:20;;;;;;;;;11.00;9.67;;;;;-144.24;100.00;69331.94;5016335;28;52728;-72
2024/02/19 01:03:45;;;;;;;;;8.00;6.33;;;;;-144.24;100.00;69273.53;5015263;28;65638;-71
2024/02/19 01:06:11;;;;;;;;;12.67;7.67;;;;;-144.24;100.00;69761.13;5016408;28;70937;-70
2024/02/19 01:08:36;;;;;;;;;9.33;6.33;;;;;-144.24;100.00;69684.56;5016573;28;45296;-73
2024/02/19 01:11:01;;;;;;;;;7.33;6.00;;;;;-144.24;100.00;69541.50;5016222;28;64792;-72
2024/02/19 01:13:27;;;;;;;;;7.00;7.00;;;;;-144.24;100.00;69468.97;5015346;28;48543;-70
2024/02/19 01:15:52;;;;;;;;;10.00;7.00;;;;;-144.24;100.00;69380.31;5016376;28;46334;-72
2024/02/19 01:18:18;;;;;;;;;11.00;6.67;;;;;-144.24;100.00;69281.59;5016866;28;45339;-72
2024/02/19 01:20:43;;;;;;;;;12.00;6.00;;;;;-144.24;100.00;69112.34;5015987;28;45383;-72
2024/02/19 01:23:08;;;;;;;;;10.67;8.67;;;;;-144.24;100.00;69120.41;5017390;28;45538;-71
2024/02/19 01:25:34;;;;;;;;;13.00;7.00;;;;;-144.24;100.00;69011.63;5011418;28;59322;-70
2024/02/19 01:27:59;;;;;;;;;5.67;5.00;;;;;-144.24;100.00;68953.19;5016130;28;45317;-71
2024/02/19 01:30:25;;;;;;;;;10.33;7.33;;;;;-144.24;100.00;68943.13;5016267;28;45448;-72
2024/02/19 01:32:50;;;;;;;;;9.33;6.67;;;;;-144.24;100.00;69100.25;5016387;28;45224;-74
2024/02/19 01:35:15;;;;;;;;;6.00;6.00;;;;;-144.24;100.00;69102.28;5016904;28;46383;-72
2024/02/19 01:37:41;;;;;;;;;12.00;6.00;;;;;-144.24;100.00;69203.00;5014226;28;71831;-73
2024/02/19 01:40:09;;;;;;;;;6.67;5.00;;;;;-144.24;100.00;69243.31;5016480;28;45981;-72
2024/02/19 01:42:35;;;;;;;;;6.67;6.00;;;;;-144.24;100.00;69104.28;5029647;28;45624;-72
2024/02/19 01:45:00;;;;;;;;;11.33;7.00;;;;;-144.24;100.00;69412.53;5015332;28;45867;-72
2024/02/19 01:47:26;;;;;;;;;7.00;5.33;;;;;-144.24;100.00;69388.38;5015697;28;45479;-72
2024/02/19 01:49:51;;;;;;;;;6.00;6.00;;;;;-144.24;100.00;69426.66;5015011;28;45268;-71
2024/02/19 01:52:17;;;;;;;;;9.00;4.67;;;;;-144.24;100.00;69541.50;5014781;28;64628;-72
2024/02/19 01:54:43;;;;;;;;;6.00;6.00;;;;;-144.24;100.00;69628.13;5010875;28;75333;-72
2024/02/19 01:57:08;;;;;;;;;7.00;4.67;;;;;-144.24;100.00;69738.94;5015632;28;45360;-73
2024/02/19 01:59:34;;;;;;;;;5.33;5.00;;;;;-144.24;100.00;69968.66;5017587;28;45491;-70
2024/02/19 02:01:59;;;;;;;;;5.00;5.00;;;;;-144.24;100.00;70000.91;5015814;28;45459;-72
2024/02/19 02:04:26;;;;;;;;;9.00;6.00;;;;;-144.24;100.00;70204.44;5015686;28;46517;-71
2024/02/19 02:06:52;;;;;;;;;7.00;4.33;;;;;-144.24;100.00;70448.28;5015281;28;45439;-72
2024/02/19 02:09:18;;;;;;;;;5.67;5.00;;;;;-144.24;100.00;70442.22;5015266;28;62241;-71
2024/02/19 02:11:43;;;;;;;;;9.67;6.33;;;;;-144.24;100.00;70680.03;5014820;28;59198;-71
2024/02/19 02:14:08;;;;;;;;;7.67;6.67;;;;;-144.24;100.00;70722.38;5014750;28;70935;-72
2024/02/19 02:16:33;;;;;;;;;9.67;6.00;;;;;-144.24;100.00;70708.25;5014940;28;66917;-72
2024/02/19 02:18:59;;;;;;;;;5.00;5.00;;;;;-144.24;100.00;70692.13;5015281;28;45587;-72
2024/02/19 02:21:24;;;;;;;;;5.67;4.00;;;;;-144.24;100.00;70847.31;5015593;28;45206;-72
2024/02/19 02:23:50;;;;;;;;;10.00;6.00;;;;;-144.24;100.00;70831.19;5011149;28;46300;-72
2024/02/19 02:26:16;;;;;;;;;10.33;6.33;;;;;-144.24;100.00;70964.22;5013646;28;72337;-72
2024/02/19 02:28:42;;;;;;;;;6.00;6.00;;;;;-144.24;100.00;71284.72;5015640;28;45353;-72
2024/02/19 02:31:07;;;;;;;;;8.67;5.67;;;;;-144.24;100.00;71357.28;5016364;28;45662;-73
2024/02/19 02:33:33;;;;;;;;;6.00;5.00;;;;;-144.24;100.00;71691.91;5015129;28;45568;-73
2024/02/19 02:35:58;;;;;;;;;7.00;6.00;;;;;-144.24;100.00;71905.59;5015225;28;45404;-73
2024/02/19 02:38:23;;;;;;;;;5.33;4.00;;;;;-144.24;100.00;72143.50;5015401;28;59467;-72
2024/02/19 02:40:49;;;;;;;;;9.00;6.67;;;;;-144.24;100.00;72183.81;5015505;28;45257;-72
2024/02/19 02:43:14;;;;;;;;;6.33;6.33;;;;;-144.24;100.00;72312.88;5014575;28;75752;-72
2024/02/19 02:45:39;;;;;;;;;11.67;6.67;;;;;-144.24;100.00;72538.69;5014664;28;72553;-72
2024/02/19 02:48:06;;;;;;;;;9.33;4.67;;;;;-144.24;100.00;72383.44;5014326;28;68493;-72
2024/02/19 02:50:32;;;;;;;;;7.00;4.67;;;;;-144.24;100.00;72516.50;5015190;28;45538;-71
2024/02/19 02:52:57;;;;;;;;;10.00;6.00;;;;;-144.24;100.00;72691.94;5014347;28;73690;-72
2024/02/19 02:55:23;;;;;;;;;6.67;5.00;;;;;-144.24;100.00;72881.47;5014171;28;65958;-72
2024/02/19 02:57:48;;;;;;;;;5.00;5.00;;;;;-144.24;100.00;72984.31;5015293;28;45431;-73
2024/02/19 03:00:14;;;;;;;;;7.00;6.00;;;;;-144.24;100.00;73073.06;5012791;28;66386;-73
2024/02/19 03:02:39;;;;;;;;;12.33;7.00;;;;;-144.24;100.00;73284.81;5018548;28;45422;-73
2024/02/19 03:05:04;;;;;;;;;11.00;7.00;;;;;-144.24;100.00;73490.53;5018616;28;45328;-70
2024/02/19 03:07:30;;;;;;;;;10.00;9.00;;;;;-144.24;100.00;73631.69;5019503;28;45773;-72
2024/02/19 03:09:56;;;;;;;;;12.67;10.00;;;;;-144.24;100.00;73776.91;5017677;28;47621;-72
2024/02/19 03:12:21;;;;;;;;;8.33;7.67;;;;;-144.24;100.00;73843.47;5018380;28;46775;-72
2024/02/19 03:14:47;;;;;;;;;7.00;7.00;;;;;-144.24;100.00;74045.19;5018525;28;45442;-72
2024/02/19 03:17:12;;;;;;;;;6.33;5.67;;;;;-144.24;100.00;74295.31;5014313;28;45428;-72
2024/02/19 03:19:37;;;;;;;;;14.33;10.33;;;;;-144.24;100.00;74045.19;5017801;28;67550;-72
2024/02/19 03:22:04;;;;;;;;;13.33;10.33;;;;;-144.24;100.00;73883.81;5017267;28;71746;-71
2024/02/19 03:24:30;;;;;;;;;15.00;10.67;;;;;-144.24;100.00;73994.75;5014408;28;45421;-72
2024/02/19 03:26:57;;;;;;;;;12.67;10.00;;;;;-144.24;100.00;73970.56;5018501;28;45519;-71
2024/02/19 03:29:23;;;;;;;;;15.00;10.00;;;;;-144.24;100.00;73847.53;5018386;28;45250;-72
2024/02/19 03:31:48;;;;;;;;;13.67;10.00;;;;;-144.24;100.00;73561.13;5018264;28;57007;-72
2024/02/19 03:34:13;;;;;;;;;11.67;10.00;;;;;-144.24;100.00;73601.44;5018027;28;45514;-72
2024/02/19 03:36:43;;;;;;;;;11.67;9.33;;;;;-144.24;100.00;73643.81;5018387;28;45726;-71
2024/02/19 03:39:08;;;;;;;;;10.67;9.67;;;;;-144.24;100.00;73672.03;5017981;28;45467;-72
2024/02/19 03:41:34;;;;;;;;;10.00;9.00;;;;;-144.24;100.00;73772.88;5017179;28;74982;-72
2024/02/19 03:43:59;;;;;;;;;11.00;9.67;;;;;-144.24;100.00;73841.47;5016258;28;68963;-73
2024/02/19 03:46:25;;;;;;;;;10.67;10.67;;;;;-144.24;100.00;73692.22;5017858;28;45533;-72
2024/02/19 03:48:50;;;;;;;;;13.33;11.00;;;;;-144.24;100.00;73716.41;5018128;28;45964;-71
2024/02/19 03:51:16;;;;;;;;;12.00;11.00;;;;;-144.24;100.00;73605.47;5016828;28;71728;-72
2024/02/19 03:53:41;;;;;;;;;13.00;11.67;;;;;-144.24;100.00;73627.66;5017013;28;66438;-72
2024/02/19 03:56:06;;;;;;;;;12.33;8.67;;;;;-144.24;100.00;73690.19;5017945;28;59834;-72
2024/02/19 03:58:32;;;;;;;;;20.00;13.00;;;;;-144.24;100.00;73841.47;5016605;28;63194;-72
2024/02/19 04:00:57;;;;;;;;;14.00;12.00;;;;;-144.24;100.00;73835.41;5020564;28;72171;-72
2024/02/19 04:03:23;;;;;;;;;15.33;10.00;;;;;-144.24;100.00;73736.59;5017855;28;45351;-72
2024/02/19 04:05:48;;;;;;;;;14.67;12.00;;;;;-144.24;100.00;73442.13;5017387;28;69006;-72
2024/02/19 04:08:14;;;;;;;;;12.33;11.00;;;;;-144.24;100.00;73190.03;5017257;28;66368;-72
2024/02/19 04:10:39;;;;;;;;;20.00;15.00;;;;;-144.24;100.00;73105.31;5017591;28;45677;-71
2024/02/19 04:13:04;;;;;;;;;15.00;11.00;;;;;-144.24;100.00;73020.63;5017177;28;45353;-71
2024/02/19 04:15:30;;;;;;;;;15.33;12.67;;;;;-144.24;100.00;72956.09;5016533;28;67045;-72
2024/02/19 04:17:56;;;;;;;;;14.00;14.00;;;;;-144.24;100.00;72921.81;5012113;28;58300;-71
2024/02/19 04:20:21;;;;;;;;;28.67;17.33;;;;;-144.24;100.00;72935.94;5017392;28;47380;-72
2024/02/19 04:22:46;;;;;;;;;14.67;10.00;;;;;-144.24;100.00;72986.34;5013544;28;45361;-72
2024/02/19 04:25:15;;;;;;;;;15.00;14.00;;;;;-144.24;100.00;72917.78;5016960;28;45340;-71
2024/02/19 04:27:40;;;;;;;;;18.00;14.67;;;;;-144.24;100.00;72877.44;5017964;28;45347;-72
2024/02/19 04:30:06;;;;;;;;;20.00;14.00;;;;;-144.24;100.00;72980.28;5016567;28;71174;-72
2024/02/19 04:32:31;;;;;;;;;16.00;13.00;;;;;-144.24;100.00;72774.59;5015956;28;45506;-71
2024/02/19 04:34:57;;;;;;;;;14.67;12.67;;;;;-144.24;100.00;72960.13;5017672;28;47682;-72
2024/02/19 04:37:23;;;;;;;;;22.67;16.00;;;;;-144.24;100.00;72766.53;5017372;28;45431;-73
2024/02/19 04:39:49;;;;;;;;;16.33;14.33;;;;;-144.24;100.00;72782.69;5017776;28;45667;-72
2024/02/19 04:42:15;;;;;;;;;18.33;14.33;;;;;-144.24;100.00;72613.28;5017565;28;45281;-71
2024/02/19 04:44:41;;;;;;;;;15.33;13.00;;;;;-144.24;100.00;72562.88;5017981;28;45372;-73
2024/02/19 04:47:06;;;;;;;;;18.33;15.00;;;;;-144.24;100.00;72587.09;5017280;28;45459;-72
2024/02/19 04:49:31;;;;;;;;;18.00;13.00;;;;;-144.24;100.00;72335.03;5016703;28;46584;-72
2024/02/19 04:51:57;;;;;;;;;22.67;14.33;;;;;-144.24;100.00;72252.38;5016160;28;68932;-73
2024/02/19 04:54:22;;;;;;;;;11.67;11.33;;;;;-144.24;100.00;72357.22;5017122;28;45641;-72
2024/02/19 04:56:47;;;;;;;;;22.00;12.00;;;;;-144.24;100.00;72353.19;5015548;28;65153;-72
2024/02/19 04:59:13;;;;;;;;;16.00;12.67;;;;;-144.24;100.00;72349.16;5016036;28;70096;-72
2024/02/19 05:01:38;;;;;;;;;14.00;13.67;;;;;-144.24;100.00;72125.34;5019963;28;50425;-73
2024/02/19 05:04:03;;;;;;;;;14.67;10.00;;;;;-144.24;100.00;71966.09;5016082;28;61933;-72
2024/02/19 05:06:29;;;;;;;;;13.33;12.33;;;;;-144.24;100.00;71820.94;5015940;28;63849;-72
2024/02/19 05:08:54;;;;;;;;;16.33;12.00;;;;;-144.24;100.00;71508.47;5016764;28;47523;-72
2024/02/19 05:11:21;;;;;;;;;15.67;11.00;;;;;-144.24;100.00;71206.09;5016685;28;45525;-72
2024/02/19 05:13:46;;;;;;;;;19.00;14.00;;;;;-144.24;100.00;70901.75;5016692;28;45357;-71
2024/02/19 05:16:11;;;;;;;;;15.00;11.33;;;;;-144.24;100.00;70534.94;5028493;28;59664;-72
2024/02/19 05:18:37;;;;;;;;;16.33;13.33;;;;;-144.24;100.00;70268.91;5015309;28;52566;-72
2024/02/19 05:21:03;;;;;;;;;21.00;14.00;;;;;-144.24;100.00;70168.16;5015549;28;69640;-72
2024/02/19 05:23:31;;;;;;;;;15.67;13.00;;;;;-144.24;100.00;69875.97;5017199;28;45449;-72
2024/02/19 05:25:57;;;;;;;;;14.00;12.00;;;;;-144.24;100.00;69577.75;5012776;28;45439;-72
2024/02/19 05:28:22;;;;;;;;;13.00;10.00;;;;;-144.24;100.00;69398.44;5016781;28;46803;-72
2024/02/19 05:30:47;;;;;;;;;14.33;11.33;;;;;-144.24;100.00;68977.38;5015554;28;68238;-71
2024/02/19 05:33:14;;;;;;;;;18.67;13.00;;;;;-144.24;100.00;68783.97;5016045;28;64221;-72
2024/02/19 05:35:39;;;;;;;;;12.00;12.00;;;;;-144.24;100.00;68550.31;5015947;28;45432;-71
2024/02/19 05:38:05;;;;;;;;;14.67;11.00;;;;;-144.24;100.00;68449.59;5015384;28;73261;-72
2024/02/19 05:40:30;;;;;;;;;17.00;13.00;;;;;-144.24;100.00;68268.31;5015634;28;69693;-71
2024/02/19 05:42:55;;;;;;;;;11.67;10.00;;;;;-144.24;100.00;67994.41;5015181;28;68743;-72
2024/02/19 05:45:20;;;;;;;;;14.67;10.00;;;;;-144.24;100.00;67817.16;5015557;28;64563;-72
2024/02/19 05:47:47;;;;;;;;;11.33;9.00;;;;;-144.24;100.00;67837.31;5014757;28;63009;-72
2024/02/19 05:50:13;;;;;;;;;13.00;7.67;;;;;-144.24;100.00;67438.56;5016205;28;45387;-74
2024/02/19 05:52:38;;;;;;;;;10.33;9.33;;;;;-144.24;100.00;67343.91;5015071;28;46856;-72
2024/02/19 05:55:04;;;;;;;;;9.33;7.00;;;;;-144.24;100.00;67082.13;5015314;28;65842;-72
2024/02/19 05:57:30;;;;;;;;;12.67;10.00;;;;;-144.24;100.00;66904.94;5015740;28;46984;-72
2024/02/19 05:59:55;;;;;;;;;18.33;14.33;;;;;-144.24;100.00;66802.25;5017921;28;66158;-72
2024/02/19 06:02:20;;;;;;;;;13.00;10.33;;;;;-144.24;100.00;66645.19;5015522;28;68403;-73
2024/02/19 06:04:46;;;;;;;;;18.67;12.67;;;;;-144.24;100.00;66488.16;5015365;28;67140;-72
2024/02/19 06:07:11;;;;;;;;;13.33;9.67;;;;;-144.24;100.00;66158.00;5015908;28;46185;-71
2024/02/19 06:09:40;;;;;;;;;11.33;10.00;;;;;-144.24;100.00;65843.94;5015062;28;73457;-72
2024/02/19 06:12:07;;;;;;;;;16.00;10.00;;;;;-144.24;100.00;65676.88;5014558;28;45492;-72
2024/02/19 06:14:32;;;;;;;;;14.00;11.00;;;;;-144.24;100.00;65721.16;5015246;28;45305;-72
2024/02/19 06:16:58;;;;;;;;;14.00;11.67;;;;;-144.24;100.00;65544.03;5014672;28;65163;-72
2024/02/19 06:19:23;;;;;;;;;15.00;10.33;;;;;-144.24;100.00;65662.78;5015930;28;45367;-71
2024/02/19 06:21:49;;;;;;;;;12.67;11.00;;;;;-144.24;100.00;65441.38;5012945;28;64930;-72
2024/02/19 06:24:14;;;;;;;;;15.00;10.33;;;;;-144.24;100.00;65290.44;5000452;28;68796;-72
2024/02/19 06:26:39;;;;;;;;;12.00;9.00;;;;;-144.24;100.00;65187.78;5013430;28;74211;-72
2024/02/19 06:29:04;;;;;;;;;13.67;11.33;;;;;-144.24;100.00;65052.94;5014402;28;72385;-73
2024/02/19 06:31:30;;;;;;;;;16.67;12.33;;;;;-144.24;100.00;65004.63;5015271;28;45314;-72
2024/02/19 06:33:55;;;;;;;;;18.33;13.33;;;;;-144.24;100.00;64513.59;5014996;28;50912;-72
2024/02/19 06:36:21;;;;;;;;;15.67;13.00;;;;;-144.24;100.00;64286.22;5013169;28;47222;-72
2024/02/19 06:38:46;;;;;;;;;24.67;14.67;;;;;-144.24;100.00;64227.88;5015541;28;45356;-72
2024/02/19 06:41:12;;;;;;;;;18.00;12.33;;;;;-144.24;100.00;64256.03;5014510;28;56494;-72
2024/02/19 06:43:37;;;;;;;;;15.33;15.33;;;;;-144.24;100.00;64125.25;5009294;28;45503;-73
2024/02/19 06:46:03;;;;;;;;;18.67;14.00;;;;;-144.24;100.00;64763.13;5012521;28;75724;-74
2024/02/19 06:48:28;;;;;;;;;14.67;11.00;;;;;-144.24;100.00;66047.28;5015022;28;45387;-73
2024/02/19 06:50:53;;;;;;;;;21.00;14.00;;;;;-144.24;100.00;66168.06;5013751;28;45565;-74
2024/02/19 06:53:19;;;;;;;;;19.67;12.67;;;;;-144.24;100.00;66278.78;5014939;28;45322;-73
2024/02/19 06:55:44;;;;;;;;;15.67;13.33;;;;;-144.24;100.00;66403.59;5014117;28;74371;-74
2024/02/19 06:58:09;;;;;;;;;13.67;11.00;;;;;-144.24;100.00;66369.38;5014095;28;45396;-73
2024/02/19 07:00:35;;;;;;;;;14.67;10.00;;;;;-144.24;100.00;66474.06;5014721;28;70676;-73
2024/02/19 07:03:00;;;;;;;;;11.00;9.33;;;;;-144.24;100.00;66594.88;5013193;28;64443;-73
2024/02/19 07:05:26;;;;;;;;;21.67;14.00;;;;;-144.24;100.00;66649.22;5014417;28;47507;-72
2024/02/19 07:07:51;;;;;;;;;20.00;12.00;;;;;-144.24;100.00;66931.09;5013889;28;72143;-74
2024/02/19 07:10:17;;;;;;;;;18.33;14.33;;;;;-144.24;100.00;67090.19;5013806;28;66616;-74
2024/02/19 07:12:43;;;;;;;;;16.33;12.00;;;;;-144.24;100.00;67339.88;5013179;28;45444;-73
2024/02/19 07:15:08;;;;;;;;;14.00;12.00;;;;;-144.24;100.00;67563.41;5012674;28;47380;-74
2024/02/19 07:17:34;;;;;;;;;12.67;11.00;;;;;-144.24;100.00;67730.56;5014925;28;45375;-73
2024/02/19 07:20:00;;;;;;;;;11.00;8.67;;;;;-144.24;100.00;67859.44;5015068;28;45324;-73
2024/02/19 07:22:25;;;;;;;;;17.67;12.00;;;;;-144.24;100.00;68014.53;5014809;28;45601;-72
2024/02/19 07:24:51;;;;;;;;;13.33;10.00;;;;;-144.24;100.00;68284.44;5009401;28;45655;-72
2024/02/19 07:27:16;;;;;;;;;11.67;10.33;;;;;-144.24;100.00;68238.09;5013947;28;71449;-72
2024/02/19 07:29:41;;;;;;;;;11.67;10.33;;;;;-144.24;100.00;68193.78;5010591;28;71709;-72
2024/02/19 07:32:07;;;;;;;;;11.67;10.00;;;;;-144.24;100.00;68125.31;4998824;28;49981;-71
2024/02/19 07:34:32;;;;;;;;;16.33;10.00;;;;;-144.24;100.00;68189.75;5011341;28;45644;-71
2024/02/19 07:36:58;;;;;;;;;16.00;12.33;;;;;-144.24;100.00;68111.22;4994129;28;45501;-71
2024/02/19 07:39:23;;;;;;;;;13.00;10.67;;;;;-144.24;100.00;67933.97;5004495;28;66552;-69
2024/02/19 07:41:48;;;;;;;;;10.33;7.67;;;;;-144.24;100.00;67885.63;5008099;28;64063;-70
2024/02/19 07:44:13;;;;;;;;;11.67;6.33;;;;;-144.24;100.00;67706.41;5009742;28;72754;-71
2024/02/19 07:46:39;;;;;;;;;13.67;11.00;;;;;-144.24;100.00;67774.88;5007765;28;45511;-71
2024/02/19 07:49:04;;;;;;;;;16.00;11.67;;;;;-144.24;100.00;67686.25;5006913;28;65465;-71
2024/02/19 07:51:29;;;;;;;;;14.67;6.00;;;;;-144.24;100.00;67686.25;5007507;28;64482;-70
2024/02/19 07:53:55;;;;;;;;;10.00;8.00;;;;;-144.24;100.00;67704.38;5010803;28;50794;-70
2024/02/19 07:56:20;;;;;;;;;17.67;7.33;;;;;-144.24;100.00;67690.28;5016148;28;45486;-70
2024/02/19 07:58:45;;;;;;;;;10.33;9.00;;;;;-144.24;100.00;67843.34;5004594;28;51151;-71
2024/02/19 08:01:11;;;;;;;;;8.33;6.00;;;;;-144.24;100.00;67782.91;5009916;28;45649;-71
2024/02/19 08:03:36;;;;;;;;;12.33;8.33;;;;;-144.24;100.00;67752.72;5011238;28;67705;-70
2024/02/19 08:06:02;;;;;;;;;5.33;4.67;;;;;-144.24;100.00;67523.13;5010685;28;59509;-71
2024/02/19 08:08:28;;;;;;;;;8.67;5.67;;;;;-144.24;100.00;67329.81;5014143;28;45689;-70
2024/02/19 08:10:54;;;;;;;;;9.00;5.00;;;;;-144.24;100.00;67047.91;5015597;28;45591;-70
2024/02/19 08:13:19;;;;;;;;;5.67;4.67;;;;;-144.24;100.00;66751.91;5010362;28;70600;-71
2024/02/19 08:15:44;;;;;;;;;11.33;3.00;;;;;-144.24;100.00;66453.94;5015074;28;64461;-70
2024/02/19 08:18:10;;;;;;;;;3.00;3.00;;;;;-144.24;100.00;66147.94;5011861;28;45446;-70
2024/02/19 08:20:39;;;;;;;;;4.00;4.00;;;;;-144.24;100.00;65469.56;5009546;28;48062;-70
2024/02/19 08:23:05;;;;;;;;;4.00;3.33;;;;;-144.24;100.00;65004.63;5011851;28;46799;-70
2024/02/19 08:25:30;;;;;;;;;6.67;4.33;;;;;-144.24;100.00;64648.44;5009791;28;65016;-71
2024/02/19 08:27:56;;;;;;;;;9.67;3.00;;;;;-144.24;100.00;64314.38;5014200;28;45405;-71
2024/02/19 08:30:21;;;;;;;;;7.00;4.33;;;;;-144.24;100.00;63783.19;5011571;28;45677;-70
2024/02/19 08:32:46;;;;;;;;;6.33;4.67;;;;;-144.24;100.00;63396.94;5011492;28;71960;-71
2024/02/19 08:35:12;;;;;;;;;7.00;4.33;;;;;-144.24;100.00;63185.69;5012001;28;71475;-70
2024/02/19 08:37:37;;;;;;;;;6.67;3.67;;;;;-144.24;100.00;63048.91;5010809;28;69255;-71
2024/02/19 08:40:05;;;;;;;;;3.67;3.00;;;;;-144.24;100.00;62906.09;5013134;28;45419;-71
2024/02/19 08:42:30;;;;;;;;;5.00;4.00;;;;;-144.24;100.00;62690.88;5010197;28;46508;-71
2024/02/19 08:44:56;;;;;;;;;6.00;5.00;;;;;-144.24;100.00;62471.63;5011252;28;73450;-71
2024/02/19 08:47:21;;;;;;;;;3.33;2.00;;;;;-144.24;100.00;62182.03;5009395;28;45583;-71
2024/02/19 08:49:46;;;;;;;;;3.00;3.00;;;;;-144.24;100.00;62117.66;5014884;28;45590;-71
2024/02/19 08:52:13;;;;;;;;;3.00;3.00;;;;;-144.24;100.00;61844.16;5011156;28;47037;-71
2024/02/19 08:54:39;;;;;;;;;4.00;3.00;;;;;-144.24;100.00;62029.19;5010420;28;47055;-69
2024/02/19 08:57:05;;;;;;;;;4.33;3.00;;;;;-144.24;100.00;62648.63;5012087;28;46597;-69
2024/02/19 08:59:30;;;;;;;;;5.00;2.33;;;;;-144.24;100.00;62916.16;5011211;28;45503;-69
2024/02/19 09:01:57;;;;;;;;;8.33;4.00;;;;;-144.24;100.00;63926.06;5007060;28;76170;-71
2024/02/19 09:04:23;;;;;;;;;4.00;3.00;;;;;-144.24;100.00;64406.94;5008194;28;45505;-70
2024/02/19 09:06:49;;;;;;;;;4.33;3.00;;;;;-144.24;100.00;64406.94;5009981;28;45556;-74
2024/02/19 09:09:15;;;;;;;;;2.67;2.67;;;;;-144.24;100.00;64398.91;5011355;28;45468;-69
2024/02/19 09:11:40;;;;;;;;;4.00;4.00;;;;;-144.24;100.00;64479.38;5010222;28;46556;-72
2024/02/19 09:14:05;;;;;;;;;6.33;3.00;;;;;-144.24;100.00;64517.63;5006512;28;70381;-73
2024/02/19 09:16:31;;;;;;;;;4.00;3.33;;;;;-144.24;100.00;64634.34;5009269;28;60515;-70
2024/02/19 09:18:57;;;;;;;;;6.67;4.67;;;;;-144.24;100.00;64765.16;5009994;28;45503;-71
2024/02/19 09:21:22;;;;;;;;;5.00;3.00;;;;;-144.24;100.00;65024.75;5011175;28;46135;-72
2024/02/19 09:23:48;;;;;;;;;7.33;3.00;;;;;-144.24;100.00;65018.72;5010669;28;48332;-71
2024/02/19 09:26:13;;;;;;;;;5.00;3.33;;;;;-144.24;100.00;65320.63;5006680;28;58404;-71
2024/02/19 09:28:39;;;;;;;;;5.67;2.00;;;;;-144.24;100.00;65280.34;5009460;28;46894;-71
2024/02/19 09:31:05;;;;;;;;;4.33;4.00;;;;;-144.24;100.00;65477.59;5007578;28;45603;-70
2024/02/19 09:33:30;;;;;;;;;5.33;4.00;;;;;-144.24;100.00;65546.03;5011135;28;45528;-72
2024/02/19 09:35:55;;;;;;;;;2.67;2.67;;;;;-144.24;100.00;65622.53;5009208;28;45689;-71
2024/02/19 09:38:21;;;;;;;;;7.00;4.00;;;;;-144.24;100.00;65662.78;5010553;28;49583;-73
2024/02/19 09:40:49;;;;;;;;;7.00;5.00;;;;;-144.24;100.00;66021.09;5008844;28;46629;-70
2024/02/19 09:43:17;;;;;;;;;4.00;4.00;;;;;-144.24;100.00;65964.72;5009310;28;45503;-70
2024/02/19 09:45:43;;;;;;;;;1.33;1.33;;;;;-144.24;100.00;66164.03;5011720;28;45459;-70
2024/02/19 09:48:12;;;;;;;;;2.33;2.00;;;;;-144.24;100.00;66337.16;5013162;28;45882;-71
2024/02/19 09:50:43;;;;;;;;;4.67;2.33;;;;;-144.24;100.00;66445.88;5006135;28;45867;-71
2024/02/19 09:53:11;;;;;;;;;2.00;2.00;;;;;-144.24;100.00;66244.56;5011080;28;45342;-71
2024/02/19 09:55:36;;;;;;;;;4.67;3.00;;;;;-144.24;100.00;66721.72;5007336;28;45675;-71
2024/02/19 09:58:03;;;;;;;;;3.00;2.00;;;;;-144.24;100.00;66657.28;5009594;28;45447;-70
2024/02/19 10:00:29;;;;;;;;;0.00;0.00;;;;;-144.24;100.00;66673.38;5013557;28;46796;-70
2024/02/19 10:02:54;;;;;;;;;3.00;2.00;;;;;-144.24;100.00;66959.31;5012429;28;45400;-71
2024/02/19 10:05:20;;;;;;;;;3.00;2.00;;;;;-144.24;100.00;66927.09;5007942;28;45793;-70
2024/02/19 10:07:45;;;;;;;;;4.33;3.00;;;;;-144.24;100.00;66792.19;5008552;28;45428;-70
2024/02/19 10:10:11;;;;;;;;;2.00;2.00;;;;;-144.24;100.00;66806.28;5002990;28;46248;-71
2024/02/19 10:12:39;;;;;;;;;3.00;2.67;;;;;-144.24;100.00;67013.66;5009623;28;45629;-69
2024/02/19 10:15:05;;;;;;;;;2.00;2.00;;;;;-144.24;100.00;66999.56;5002639;28;45514;-70
2024/02/19 10:17:31;;;;;;;;;3.00;3.00;;;;;-144.24;100.00;66959.31;5012804;28;45661;-71
2024/02/19 10:20:06;;;;;;;;;5.33;2.67;;;;;-144.24;100.00;66739.81;5012893;28;47372;-70
2024/02/19 10:22:35;;;;;;;;;2.00;2.00;;;;;-144.24;100.00;66898.91;5011973;28;45537;-70
2024/02/19 10:25:01;;;;;;;;;4.67;3.33;;;;;-144.24;100.00;67261.34;5009156;28;45617;-71
2024/02/19 10:27:30;;;;;;;;;3.00;3.00;;;;;-144.24;100.00;67490.91;5009066;28;45615;-70
2024/02/19 10:29:57;;;;;;;;;5.33;2.67;;;;;-144.24;100.00;67744.66;5013593;28;47014;-70
2024/02/19 10:32:22;;;;;;;;;6.67;2.00;;;;;-144.24;100.00;67980.28;5013614;28;45484;-70
2024/02/19 10:34:48;;;;;;;;;3.00;3.00;;;;;-144.24;100.00;68024.59;5013166;28;45389;-69
2024/02/19 10:37:14;;;;;;;;;3.00;3.00;;;;;-144.24;100.00;68238.09;5013633;28;45542;-71
2024/02/19 10:39:39;;;;;;;;;4.00;3.00;;;;;-144.24;100.00;68385.13;5009625;28;45660;-70
2024/02/19 10:42:05;;;;;;;;;2.00;2.00;;;;;-144.24;100.00;68528.16;5012036;28;45459;-70
2024/02/19 10:44:31;;;;;;;;;6.00;2.67;;;;;-144.24;100.00;68612.75;5010338;28;45749;-70
2024/02/19 10:46:56;;;;;;;;;2.00;2.00;;;;;-144.24;100.00;68790.03;5004585;28;46460;-70
2024/02/19 10:49:22;;;;;;;;;4.00;4.00;;;;;-144.24;100.00;68955.22;5006651;28;45779;-70
2024/02/19 10:51:47;;;;;;;;;3.00;3.00;;;;;-144.24;100.00;69066.03;5006850;28;45446;-70
2024/02/19 10:54:17;;;;;;;;;3.00;3.00;;;;;-144.24;100.00;69257.41;5012781;28;67053;-70